sensor_id;sensor_type;location;lat;lon;timestamp;P1;durP1;ratioP1;P2;durP2;ratioP2
6406;SDS011;3236;51.022;6.818;2024-01-15T00:01:53;22.77;;;9.35;;
6406;SDS011;3236;51.022;6.818;2024-01-15T00:04:20;46.45;;;15.95;;
6406;SDS011;3236;51.022;6.818;2024-01-15T00:06:48;37.20;;;13.10;;
6406;SDS011;3236;51.022;6.818;2024-01-15T00:09:16;43.17;;;12.63;;
6406;SDS011;3236;51.022;6.818;2024-01-15T00:11:44;28.95;;;12.02;;
6406;SDS011;3236;51.022;6.818;2024-01-15T00:14:12;19.13;;;8.68;;
6406;SDS011;3236;51.022;6.818;2024-01-15T00:16:45;25.33;;;9.90;;
6406;SDS011;3236;51.022;6.818;2024-01-15T00:19:14;35.85;;;12.23;;
6406;SDS011;3236;51.022;6.818;2024-01-15T00:21:42;28.08;;;11.98;;
6406;SDS011;3236;51.022;6.818;2024-01-15T00:24:09;22.45;;;9.93;;
6406;SDS011;3236;51.022;6.818;2024-01-15T00:26:37;33.40;;;13.27;;
6406;SDS011;3236;51.022;6.818;2024-01-15T00:29:06;26.65;;;12.38;;
6406;SDS011;3236;51.022;6.818;2024-01-15T00:31:34;39.05;;;13.85;;
6406;SDS011;3236;51.022;6.818;2024-01-15T00:34:01;42.83;;;14.60;;
6406;SDS011;3236;51.022;6.818;2024-01-15T00:36:28;50.60;;;17.65;;
6406;SDS011;3236;51.022;6.818;2024-01-15T00:38:56;39.60;;;14.07;;
6406;SDS011;3236;51.022;6.818;2024-01-15T00:41:23;31.55;;;12.70;;
6406;SDS011;3236;51.022;6.818;2024-01-15T00:43:52;32.85;;;11.35;;
6406;SDS011;3236;51.022;6.818;2024-01-15T00:46:21;53.05;;;17.30;;
6406;SDS011;3236;51.022;6.818;2024-01-15T00:48:48;31.67;;;12.13;;
6406;SDS011;3236;51.022;6.818;2024-01-15T00:51:16;35.65;;;14.65;;
6406;SDS011;3236;51.022;6.818;2024-01-15T00:53:43;50.05;;;15.82;;
6406;SDS011;3236;51.022;6.818;2024-01-15T00:56:12;33.55;;;12.90;;
6406;SDS011;3236;51.022;6.818;2024-01-15T00:58:39;31.20;;;12.05;;
6406;SDS011;3236;51.022;6.818;2024-01-15T01:01:06;25.08;;;10.50;;
6406;SDS011;3236;51.022;6.818;2024-01-15T01:03:34;35.67;;;14.05;;
6406;SDS011;3236;51.022;6.818;2024-01-15T01:06:02;28.23;;;11.90;;
6406;SDS011;3236;51.022;6.818;2024-01-15T01:08:29;31.73;;;11.50;;
6406;SDS011;3236;51.022;6.818;2024-01-15T01:10:56;32.30;;;13.43;;
6406;SDS011;3236;51.022;6.818;2024-01-15T01:13:24;36.38;;;14.32;;
6406;SDS011;3236;51.022;6.818;2024-01-15T01:15:51;44.95;;;15.98;;
6406;SDS011;3236;51.022;6.818;2024-01-15T01:18:18;35.33;;;12.43;;
6406;SDS011;3236;51.022;6.818;2024-01-15T01:20:47;29.95;;;10.98;;
6406;SDS011;3236;51.022;6.818;2024-01-15T01:23:14;27.00;;;11.52;;
6406;SDS011;3236;51.022;6.818;2024-01-15T01:25:41;28.92;;;12.25;;
6406;SDS011;3236;51.022;6.818;2024-01-15T01:28:08;29.20;;;11.55;;
6406;SDS011;3236;51.022;6.818;2024-01-15T01:30:35;37.83;;;14.45;;
6406;SDS011;3236;51.022;6.818;2024-01-15T01:33:03;28.98;;;12.93;;
6406;SDS011;3236;51.022;6.818;2024-01-15T01:35:30;32.80;;;14.02;;
6406;SDS011;3236;51.022;6.818;2024-01-15T01:37:59;42.05;;;14.45;;
6406;SDS011;3236;51.022;6.818;2024-01-15T01:40:26;28.17;;;11.00;;
6406;SDS011;3236;51.022;6.818;2024-01-15T01:42:54;44.28;;;16.75;;
6406;SDS011;3236;51.022;6.818;2024-01-15T01:45:21;39.75;;;14.70;;
6406;SDS011;3236;51.022;6.818;2024-01-15T01:47:48;33.13;;;11.82;;
6406;SDS011;3236;51.022;6.818;2024-01-15T01:50:15;23.13;;;11.05;;
6406;SDS011;3236;51.022;6.818;2024-01-15T01:52:43;38.22;;;14.05;;
6406;SDS011;3236;51.022;6.818;2024-01-15T01:55:12;30.73;;;13.48;;
6406;SDS011;3236;51.022;6.818;2024-01-15T01:57:39;42.08;;;14.93;;
6406;SDS011;3236;51.022;6.818;2024-01-15T02:00:08;26.15;;;10.85;;
6406;SDS011;3236;51.022;6.818;2024-01-15T02:02:36;55.33;;;18.88;;
6406;SDS011;3236;51.022;6.818;2024-01-15T02:05:04;33.50;;;11.73;;
6406;SDS011;3236;51.022;6.818;2024-01-15T02:07:34;26.42;;;10.93;;
6406;SDS011;3236;51.022;6.818;2024-01-15T02:10:02;39.50;;;13.85;;
6406;SDS011;3236;51.022;6.818;2024-01-15T02:12:35;39.50;;;13.93;;
6406;SDS011;3236;51.022;6.818;2024-01-15T02:15:03;23.55;;;10.73;;
6406;SDS011;3236;51.022;6.818;2024-01-15T02:17:31;28.58;;;11.48;;
6406;SDS011;3236;51.022;6.818;2024-01-15T02:19:58;40.33;;;15.73;;
6406;SDS011;3236;51.022;6.818;2024-01-15T02:22:25;25.90;;;10.73;;
6406;SDS011;3236;51.022;6.818;2024-01-15T02:24:57;37.13;;;13.85;;
6406;SDS011;3236;51.022;6.818;2024-01-15T02:27:24;36.38;;;13.35;;
6406;SDS011;3236;51.022;6.818;2024-01-15T02:29:51;41.33;;;16.75;;
6406;SDS011;3236;51.022;6.818;2024-01-15T02:32:18;25.75;;;13.10;;
6406;SDS011;3236;51.022;6.818;2024-01-15T02:34:46;48.70;;;17.02;;
6406;SDS011;3236;51.022;6.818;2024-01-15T02:37:13;32.53;;;12.57;;
6406;SDS011;3236;51.022;6.818;2024-01-15T02:39:43;42.20;;;13.95;;
6406;SDS011;3236;51.022;6.818;2024-01-15T02:42:12;25.55;;;10.90;;
6406;SDS011;3236;51.022;6.818;2024-01-15T02:44:39;26.50;;;11.57;;
6406;SDS011;3236;51.022;6.818;2024-01-15T02:47:06;21.77;;;10.75;;
6406;SDS011;3236;51.022;6.818;2024-01-15T02:49:34;34.58;;;11.95;;
6406;SDS011;3236;51.022;6.818;2024-01-15T02:52:02;34.28;;;12.23;;
6406;SDS011;3236;51.022;6.818;2024-01-15T02:54:29;35.28;;;14.00;;
6406;SDS011;3236;51.022;6.818;2024-01-15T02:56:57;30.50;;;11.30;;
6406;SDS011;3236;51.022;6.818;2024-01-15T02:59:25;24.17;;;11.90;;
6406;SDS011;3236;51.022;6.818;2024-01-15T03:01:52;20.65;;;8.98;;
6406;SDS011;3236;51.022;6.818;2024-01-15T03:04:19;33.67;;;12.30;;
6406;SDS011;3236;51.022;6.818;2024-01-15T03:06:47;30.80;;;12.05;;
6406;SDS011;3236;51.022;6.818;2024-01-15T03:09:14;32.47;;;12.95;;
6406;SDS011;3236;51.022;6.818;2024-01-15T03:11:41;24.75;;;10.00;;
6406;SDS011;3236;51.022;6.818;2024-01-15T03:14:08;31.50;;;9.75;;
6406;SDS011;3236;51.022;6.818;2024-01-15T03:16:37;27.73;;;10.88;;
6406;SDS011;3236;51.022;6.818;2024-01-15T03:19:04;26.20;;;8.38;;
6406;SDS011;3236;51.022;6.818;2024-01-15T03:21:31;17.25;;;8.70;;
6406;SDS011;3236;51.022;6.818;2024-01-15T03:23:58;36.42;;;13.23;;
6406;SDS011;3236;51.022;6.818;2024-01-15T03:26:26;22.17;;;11.10;;
6406;SDS011;3236;51.022;6.818;2024-01-15T03:28:53;26.35;;;10.75;;
6406;SDS011;3236;51.022;6.818;2024-01-15T03:31:23;20.25;;;8.07;;
6406;SDS011;3236;51.022;6.818;2024-01-15T03:33:52;27.27;;;11.38;;
6406;SDS011;3236;51.022;6.818;2024-01-15T03:36:19;26.13;;;8.95;;
6406;SDS011;3236;51.022;6.818;2024-01-15T03:38:46;29.38;;;13.52;;
6406;SDS011;3236;51.022;6.818;2024-01-15T03:41:14;21.80;;;10.30;;
6406;SDS011;3236;51.022;6.818;2024-01-15T03:43:41;40.90;;;13.38;;
6406;SDS011;3236;51.022;6.818;2024-01-15T03:46:08;29.90;;;10.98;;
6406;SDS011;3236;51.022;6.818;2024-01-15T03:48:35;34.75;;;14.98;;
6406;SDS011;3236;51.022;6.818;2024-01-15T03:51:05;23.45;;;10.73;;
6406;SDS011;3236;51.022;6.818;2024-01-15T03:53:32;27.33;;;11.93;;
6406;SDS011;3236;51.022;6.818;2024-01-15T03:55:59;22.77;;;12.07;;
6406;SDS011;3236;51.022;6.818;2024-01-15T03:58:26;29.73;;;12.65;;
6406;SDS011;3236;51.022;6.818;2024-01-15T04:00:54;33.30;;;12.20;;
6406;SDS011;3236;51.022;6.818;2024-01-15T04:03:22;28.88;;;12.00;;
6406;SDS011;3236;51.022;6.818;2024-01-15T04:05:49;33.15;;;13.40;;
6406;SDS011;3236;51.022;6.818;2024-01-15T04:08:18;39.83;;;14.95;;
6406;SDS011;3236;51.022;6.818;2024-01-15T04:10:48;15.48;;;7.10;;
6406;SDS011;3236;51.022;6.818;2024-01-15T04:13:15;24.43;;;10.17;;
6406;SDS011;3236;51.022;6.818;2024-01-15T04:15:43;23.52;;;9.57;;
6406;SDS011;3236;51.022;6.818;2024-01-15T04:18:10;23.52;;;10.65;;
6406;SDS011;3236;51.022;6.818;2024-01-15T04:20:38;24.13;;;10.10;;
6406;SDS011;3236;51.022;6.818;2024-01-15T04:23:12;34.13;;;12.75;;
6406;SDS011;3236;51.022;6.818;2024-01-15T04:25:40;27.27;;;12.07;;
6406;SDS011;3236;51.022;6.818;2024-01-15T04:28:08;22.77;;;10.15;;
6406;SDS011;3236;51.022;6.818;2024-01-15T04:30:35;32.45;;;11.85;;
6406;SDS011;3236;51.022;6.818;2024-01-15T04:33:02;25.42;;;11.98;;
6406;SDS011;3236;51.022;6.818;2024-01-15T04:35:30;25.92;;;11.93;;
6406;SDS011;3236;51.022;6.818;2024-01-15T04:37:57;20.27;;;8.02;;
6406;SDS011;3236;51.022;6.818;2024-01-15T04:40:24;32.42;;;11.80;;
6406;SDS011;3236;51.022;6.818;2024-01-15T04:42:54;23.88;;;11.10;;
6406;SDS011;3236;51.022;6.818;2024-01-15T04:45:21;32.22;;;12.52;;
6406;SDS011;3236;51.022;6.818;2024-01-15T04:47:53;28.42;;;12.43;;
6406;SDS011;3236;51.022;6.818;2024-01-15T04:50:20;26.00;;;11.93;;
6406;SDS011;3236;51.022;6.818;2024-01-15T04:52:48;28.92;;;12.32;;
6406;SDS011;3236;51.022;6.818;2024-01-15T04:55:16;33.28;;;13.73;;
6406;SDS011;3236;51.022;6.818;2024-01-15T04:57:43;16.20;;;6.95;;
6406;SDS011;3236;51.022;6.818;2024-01-15T05:00:12;19.58;;;9.95;;
6406;SDS011;3236;51.022;6.818;2024-01-15T05:02:40;21.02;;;9.27;;
6406;SDS011;3236;51.022;6.818;2024-01-15T05:05:07;23.23;;;9.77;;
6406;SDS011;3236;51.022;6.818;2024-01-15T05:07:34;22.80;;;11.00;;
6406;SDS011;3236;51.022;6.818;2024-01-15T05:10:02;19.08;;;7.50;;
6406;SDS011;3236;51.022;6.818;2024-01-15T05:12:29;21.63;;;10.30;;
6406;SDS011;3236;51.022;6.818;2024-01-15T05:14:57;20.95;;;9.15;;
6406;SDS011;3236;51.022;6.818;2024-01-15T05:17:25;35.10;;;10.93;;
6406;SDS011;3236;51.022;6.818;2024-01-15T05:19:52;25.75;;;11.82;;
6406;SDS011;3236;51.022;6.818;2024-01-15T05:22:20;32.28;;;12.45;;
6406;SDS011;3236;51.022;6.818;2024-01-15T05:24:49;25.10;;;10.68;;
6406;SDS011;3236;51.022;6.818;2024-01-15T05:27:16;23.95;;;10.38;;
6406;SDS011;3236;51.022;6.818;2024-01-15T05:29:44;20.00;;;9.68;;
6406;SDS011;3236;51.022;6.818;2024-01-15T05:32:11;21.40;;;9.15;;
6406;SDS011;3236;51.022;6.818;2024-01-15T05:34:40;24.45;;;11.27;;
6406;SDS011;3236;51.022;6.818;2024-01-15T05:37:07;21.58;;;7.95;;
6406;SDS011;3236;51.022;6.818;2024-01-15T05:39:34;26.30;;;11.55;;
6406;SDS011;3236;51.022;6.818;2024-01-15T05:42:02;38.78;;;12.27;;
6406;SDS011;3236;51.022;6.818;2024-01-15T05:44:30;29.98;;;10.90;;
6406;SDS011;3236;51.022;6.818;2024-01-15T05:47:00;27.55;;;9.82;;
6406;SDS011;3236;51.022;6.818;2024-01-15T05:49:29;17.13;;;7.68;;
6406;SDS011;3236;51.022;6.818;2024-01-15T05:51:57;22.67;;;9.45;;
6406;SDS011;3236;51.022;6.818;2024-01-15T05:54:25;13.50;;;6.43;;
6406;SDS011;3236;51.022;6.818;2024-01-15T05:56:52;24.70;;;10.18;;
6406;SDS011;3236;51.022;6.818;2024-01-15T05:59:20;21.20;;;9.45;;
6406;SDS011;3236;51.022;6.818;2024-01-15T06:01:47;16.05;;;7.00;;
6406;SDS011;3236;51.022;6.818;2024-01-15T06:04:14;14.73;;;6.68;;
6406;SDS011;3236;51.022;6.818;2024-01-15T06:06:42;15.38;;;7.10;;
6406;SDS011;3236;51.022;6.818;2024-01-15T06:09:10;22.08;;;9.30;;
6406;SDS011;3236;51.022;6.818;2024-01-15T06:11:38;26.45;;;10.88;;
6406;SDS011;3236;51.022;6.818;2024-01-15T06:14:05;27.70;;;11.57;;
6406;SDS011;3236;51.022;6.818;2024-01-15T06:16:32;25.65;;;10.38;;
6406;SDS011;3236;51.022;6.818;2024-01-15T06:18:59;21.17;;;11.43;;
6406;SDS011;3236;51.022;6.818;2024-01-15T06:21:27;20.67;;;9.50;;
6406;SDS011;3236;51.022;6.818;2024-01-15T06:23:55;36.55;;;16.60;;
6406;SDS011;3236;51.022;6.818;2024-01-15T06:26:23;20.48;;;9.63;;
6406;SDS011;3236;51.022;6.818;2024-01-15T06:28:51;24.25;;;9.73;;
6406;SDS011;3236;51.022;6.818;2024-01-15T06:31:18;17.65;;;7.20;;
6406;SDS011;3236;51.022;6.818;2024-01-15T06:33:45;18.90;;;8.80;;
6406;SDS011;3236;51.022;6.818;2024-01-15T06:36:14;14.40;;;8.02;;
6406;SDS011;3236;51.022;6.818;2024-01-15T06:38:42;17.27;;;8.07;;
6406;SDS011;3236;51.022;6.818;2024-01-15T06:41:10;21.15;;;6.90;;
6406;SDS011;3236;51.022;6.818;2024-01-15T06:43:39;17.73;;;8.13;;
6406;SDS011;3236;51.022;6.818;2024-01-15T06:46:06;14.27;;;6.68;;
6406;SDS011;3236;51.022;6.818;2024-01-15T06:48:34;34.88;;;11.95;;
6406;SDS011;3236;51.022;6.818;2024-01-15T06:51:01;25.17;;;10.38;;
6406;SDS011;3236;51.022;6.818;2024-01-15T06:53:31;22.98;;;10.00;;
6406;SDS011;3236;51.022;6.818;2024-01-15T06:56:03;14.77;;;8.20;;
6406;SDS011;3236;51.022;6.818;2024-01-15T06:58:31;17.40;;;7.97;;
6406;SDS011;3236;51.022;6.818;2024-01-15T07:00:59;20.00;;;8.88;;
6406;SDS011;3236;51.022;6.818;2024-01-15T07:03:27;7.28;;;5.43;;
6406;SDS011;3236;51.022;6.818;2024-01-15T07:05:54;18.30;;;8.27;;
6406;SDS011;3236;51.022;6.818;2024-01-15T07:08:22;13.13;;;6.15;;
6406;SDS011;3236;51.022;6.818;2024-01-15T07:10:49;12.73;;;6.63;;
6406;SDS011;3236;51.022;6.818;2024-01-15T07:13:16;21.13;;;9.18;;
6406;SDS011;3236;51.022;6.818;2024-01-15T07:15:50;17.65;;;7.18;;
6406;SDS011;3236;51.022;6.818;2024-01-15T07:18:19;19.17;;;8.57;;
6406;SDS011;3236;51.022;6.818;2024-01-15T07:20:46;13.98;;;7.65;;
6406;SDS011;3236;51.022;6.818;2024-01-15T07:23:13;22.83;;;9.27;;
6406;SDS011;3236;51.022;6.818;2024-01-15T07:25:42;23.70;;;10.48;;
6406;SDS011;3236;51.022;6.818;2024-01-15T07:28:10;19.38;;;8.65;;
6406;SDS011;3236;51.022;6.818;2024-01-15T07:30:37;20.10;;;9.02;;
6406;SDS011;3236;51.022;6.818;2024-01-15T07:33:04;21.05;;;10.18;;
6406;SDS011;3236;51.022;6.818;2024-01-15T07:35:36;13.73;;;6.60;;
6406;SDS011;3236;51.022;6.818;2024-01-15T07:38:03;18.35;;;9.38;;
6406;SDS011;3236;51.022;6.818;2024-01-15T07:40:31;13.00;;;6.97;;
6406;SDS011;3236;51.022;6.818;2024-01-15T07:42:59;17.90;;;8.40;;
6406;SDS011;3236;51.022;6.818;2024-01-15T07:45:26;28.33;;;13.43;;
6406;SDS011;3236;51.022;6.818;2024-01-15T07:47:53;29.88;;;13.18;;
6406;SDS011;3236;51.022;6.818;2024-01-15T07:50:20;16.00;;;8.02;;
6406;SDS011;3236;51.022;6.818;2024-01-15T07:52:49;9.80;;;5.82;;
6406;SDS011;3236;51.022;6.818;2024-01-15T07:55:18;25.40;;;11.10;;
6406;SDS011;3236;51.022;6.818;2024-01-15T07:57:47;37.05;;;12.68;;
6406;SDS011;3236;51.022;6.818;2024-01-15T08:00:15;16.45;;;9.30;;
6406;SDS011;3236;51.022;6.818;2024-01-15T08:02:43;23.65;;;12.48;;
6406;SDS011;3236;51.022;6.818;2024-01-15T08:05:10;20.88;;;9.57;;
6406;SDS011;3236;51.022;6.818;2024-01-15T08:07:38;23.50;;;12.13;;
6406;SDS011;3236;51.022;6.818;2024-01-15T08:10:07;18.65;;;9.00;;
6406;SDS011;3236;51.022;6.818;2024-01-15T08:12:35;17.13;;;9.90;;
6406;SDS011;3236;51.022;6.818;2024-01-15T08:15:02;34.40;;;11.88;;
6406;SDS011;3236;51.022;6.818;2024-01-15T08:17:30;32.20;;;15.30;;
6406;SDS011;3236;51.022;6.818;2024-01-15T08:19:58;20.08;;;10.13;;
6406;SDS011;3236;51.022;6.818;2024-01-15T08:22:26;30.02;;;12.80;;
6406;SDS011;3236;51.022;6.818;2024-01-15T08:24:53;32.17;;;13.48;;
6406;SDS011;3236;51.022;6.818;2024-01-15T08:27:23;23.50;;;9.30;;
6406;SDS011;3236;51.022;6.818;2024-01-15T08:29:50;29.17;;;13.48;;
6406;SDS011;3236;51.022;6.818;2024-01-15T08:32:19;17.25;;;9.85;;
6406;SDS011;3236;51.022;6.818;2024-01-15T08:34:46;24.85;;;10.50;;
6406;SDS011;3236;51.022;6.818;2024-01-15T08:37:20;30.63;;;10.45;;
6406;SDS011;3236;51.022;6.818;2024-01-15T08:39:47;18.13;;;9.43;;
6406;SDS011;3236;51.022;6.818;2024-01-15T08:42:15;18.48;;;8.27;;
6406;SDS011;3236;51.022;6.818;2024-01-15T08:44:43;32.17;;;13.18;;
6406;SDS011;3236;51.022;6.818;2024-01-15T08:47:12;25.58;;;11.93;;
6406;SDS011;3236;51.022;6.818;2024-01-15T08:49:39;29.52;;;13.07;;
6406;SDS011;3236;51.022;6.818;2024-01-15T08:52:08;34.78;;;14.10;;
6406;SDS011;3236;51.022;6.818;2024-01-15T08:54:35;21.98;;;9.93;;
6406;SDS011;3236;51.022;6.818;2024-01-15T08:57:03;25.48;;;11.50;;
6406;SDS011;3236;51.022;6.818;2024-01-15T08:59:33;12.25;;;6.68;;
6406;SDS011;3236;51.022;6.818;2024-01-15T09:02:02;16.38;;;9.13;;
6406;SDS011;3236;51.022;6.818;2024-01-15T09:04:29;12.57;;;8.00;;
6406;SDS011;3236;51.022;6.818;2024-01-15T09:06:57;15.77;;;7.57;;
6406;SDS011;3236;51.022;6.818;2024-01-15T09:09:24;24.20;;;9.57;;
6406;SDS011;3236;51.022;6.818;2024-01-15T09:11:52;27.98;;;14.02;;
6406;SDS011;3236;51.022;6.818;2024-01-15T09:14:20;13.25;;;7.55;;
6406;SDS011;3236;51.022;6.818;2024-01-15T09:16:47;15.20;;;8.05;;
6406;SDS011;3236;51.022;6.818;2024-01-15T09:19:19;17.38;;;9.27;;
6406;SDS011;3236;51.022;6.818;2024-01-15T09:21:46;14.73;;;8.50;;
6406;SDS011;3236;51.022;6.818;2024-01-15T09:24:14;15.60;;;8.25;;
6406;SDS011;3236;51.022;6.818;2024-01-15T09:26:41;21.98;;;11.32;;
6406;SDS011;3236;51.022;6.818;2024-01-15T09:29:09;20.38;;;7.25;;
6406;SDS011;3236;51.022;6.818;2024-01-15T09:31:40;16.15;;;7.53;;
6406;SDS011;3236;51.022;6.818;2024-01-15T09:34:07;11.95;;;5.97;;
6406;SDS011;3236;51.022;6.818;2024-01-15T09:36:40;11.15;;;6.00;;
6406;SDS011;3236;51.022;6.818;2024-01-15T09:39:07;14.20;;;6.88;;
6406;SDS011;3236;51.022;6.818;2024-01-15T09:41:36;22.42;;;9.05;;
6406;SDS011;3236;51.022;6.818;2024-01-15T09:44:04;8.00;;;5.45;;
6406;SDS011;3236;51.022;6.818;2024-01-15T09:46:32;15.35;;;6.45;;
6406;SDS011;3236;51.022;6.818;2024-01-15T09:49:00;6.82;;;5.00;;
6406;SDS011;3236;51.022;6.818;2024-01-15T09:51:28;11.93;;;5.75;;
6406;SDS011;3236;51.022;6.818;2024-01-15T09:54:02;13.00;;;7.55;;
6406;SDS011;3236;51.022;6.818;2024-01-15T09:56:30;4.93;;;3.13;;
6406;SDS011;3236;51.022;6.818;2024-01-15T09:59:04;11.70;;;5.13;;
6406;SDS011;3236;51.022;6.818;2024-01-15T10:01:32;8.10;;;4.40;;
6406;SDS011;3236;51.022;6.818;2024-01-15T10:04:03;7.47;;;4.22;;
6406;SDS011;3236;51.022;6.818;2024-01-15T10:06:30;10.07;;;5.85;;
6406;SDS011;3236;51.022;6.818;2024-01-15T10:08:59;8.00;;;5.07;;
6406;SDS011;3236;51.022;6.818;2024-01-15T10:11:30;5.80;;;4.25;;
6406;SDS011;3236;51.022;6.818;2024-01-15T10:13:58;5.57;;;3.47;;
6406;SDS011;3236;51.022;6.818;2024-01-15T10:16:25;8.73;;;4.45;;
6406;SDS011;3236;51.022;6.818;2024-01-15T10:18:53;15.00;;;6.68;;
6406;SDS011;3236;51.022;6.818;2024-01-15T10:21:20;9.75;;;6.18;;
6406;SDS011;3236;51.022;6.818;2024-01-15T10:23:48;7.30;;;4.50;;
6406;SDS011;3236;51.022;6.818;2024-01-15T10:26:24;8.82;;;5.45;;
6406;SDS011;3236;51.022;6.818;2024-01-15T10:28:52;11.73;;;5.05;;
6406;SDS011;3236;51.022;6.818;2024-01-15T10:31:20;7.88;;;4.65;;
6406;SDS011;3236;51.022;6.818;2024-01-15T10:33:48;11.15;;;4.63;;
6406;SDS011;3236;51.022;6.818;2024-01-15T10:36:14;5.90;;;4.15;;
6406;SDS011;3236;51.022;6.818;2024-01-15T10:38:43;3.42;;;2.33;;
6406;SDS011;3236;51.022;6.818;2024-01-15T10:41:10;4.05;;;2.83;;
6406;SDS011;3236;51.022;6.818;2024-01-15T10:43:38;4.13;;;3.00;;
6406;SDS011;3236;51.022;6.818;2024-01-15T10:46:07;4.57;;;2.45;;
6406;SDS011;3236;51.022;6.818;2024-01-15T10:48:36;4.68;;;3.25;;
6406;SDS011;3236;51.022;6.818;2024-01-15T10:51:06;7.50;;;3.05;;
6406;SDS011;3236;51.022;6.818;2024-01-15T10:53:36;5.38;;;3.80;;
6406;SDS011;3236;51.022;6.818;2024-01-15T10:56:05;8.48;;;4.30;;
6406;SDS011;3236;51.022;6.818;2024-01-15T10:58:34;4.97;;;2.03;;
6406;SDS011;3236;51.022;6.818;2024-01-15T11:01:01;3.53;;;2.85;;
6406;SDS011;3236;51.022;6.818;2024-01-15T11:03:31;3.30;;;2.05;;
6406;SDS011;3236;51.022;6.818;2024-01-15T11:05:59;4.20;;;3.28;;
6406;SDS011;3236;51.022;6.818;2024-01-15T11:08:26;6.15;;;2.35;;
6406;SDS011;3236;51.022;6.818;2024-01-15T11:10:57;3.75;;;2.95;;
6406;SDS011;3236;51.022;6.818;2024-01-15T11:13:39;1.77;;;1.67;;
6406;SDS011;3236;51.022;6.818;2024-01-15T11:16:09;7.22;;;2.50;;
6406;SDS011;3236;51.022;6.818;2024-01-15T11:18:39;2.95;;;2.47;;
6406;SDS011;3236;51.022;6.818;2024-01-15T11:21:22;6.28;;;2.92;;
6406;SDS011;3236;51.022;6.818;2024-01-15T11:23:51;3.05;;;2.20;;
6406;SDS011;3236;51.022;6.818;2024-01-15T11:26:34;2.53;;;2.33;;
6406;SDS011;3236;51.022;6.818;2024-01-15T11:29:03;2.58;;;2.08;;
6406;SDS011;3236;51.022;6.818;2024-01-15T11:37:29;5.38;;;3.15;;
6406;SDS011;3236;51.022;6.818;2024-01-15T11:40:36;3.60;;;2.67;;
6406;SDS011;3236;51.022;6.818;2024-01-15T11:43:08;6.63;;;3.90;;
6406;SDS011;3236;51.022;6.818;2024-01-15T11:45:38;5.03;;;3.25;;
6406;SDS011;3236;51.022;6.818;2024-01-15T11:48:10;3.75;;;2.83;;
6406;SDS011;3236;51.022;6.818;2024-01-15T11:50:41;4.30;;;2.22;;
6406;SDS011;3236;51.022;6.818;2024-01-15T11:53:25;4.47;;;3.40;;
6406;SDS011;3236;51.022;6.818;2024-01-15T11:56:01;9.48;;;5.57;;
6406;SDS011;3236;51.022;6.818;2024-01-15T11:58:34;9.90;;;5.65;;
6406;SDS011;3236;51.022;6.818;2024-01-15T12:01:03;7.40;;;4.57;;
6406;SDS011;3236;51.022;6.818;2024-01-15T12:03:33;5.60;;;3.78;;
6406;SDS011;3236;51.022;6.818;2024-01-15T12:06:06;4.53;;;3.15;;
6406;SDS011;3236;51.022;6.818;2024-01-15T12:08:35;5.47;;;4.88;;
6406;SDS011;3236;51.022;6.818;2024-01-15T12:11:04;10.23;;;5.07;;
6406;SDS011;3236;51.022;6.818;2024-01-15T12:13:37;8.88;;;5.43;;
6406;SDS011;3236;51.022;6.818;2024-01-15T12:16:04;10.32;;;4.43;;
6406;SDS011;3236;51.022;6.818;2024-01-15T12:18:32;11.07;;;6.57;;
6406;SDS011;3236;51.022;6.818;2024-01-15T12:21:01;7.65;;;4.22;;
6406;SDS011;3236;51.022;6.818;2024-01-15T12:23:33;12.60;;;4.75;;
6406;SDS011;3236;51.022;6.818;2024-01-15T12:26:03;16.58;;;5.32;;
6406;SDS011;3236;51.022;6.818;2024-01-15T12:28:30;11.30;;;5.72;;
6406;SDS011;3236;51.022;6.818;2024-01-15T12:30:58;10.90;;;6.03;;
6406;SDS011;3236;51.022;6.818;2024-01-15T12:33:33;7.70;;;3.75;;
6406;SDS011;3236;51.022;6.818;2024-01-15T12:36:04;7.07;;;3.63;;
6406;SDS011;3236;51.022;6.818;2024-01-15T12:38:33;7.97;;;4.03;;
6406;SDS011;3236;51.022;6.818;2024-01-15T12:41:01;10.02;;;3.42;;
6406;SDS011;3236;51.022;6.818;2024-01-15T12:43:29;12.68;;;6.22;;
6406;SDS011;3236;51.022;6.818;2024-01-15T12:45:56;7.20;;;2.75;;
6406;SDS011;3236;51.022;6.818;2024-01-15T12:48:24;10.68;;;4.53;;
6406;SDS011;3236;51.022;6.818;2024-01-15T12:50:54;13.18;;;4.47;;
6406;SDS011;3236;51.022;6.818;2024-01-15T12:53:26;7.45;;;4.57;;
6406;SDS011;3236;51.022;6.818;2024-01-15T12:55:54;10.23;;;4.47;;
6406;SDS011;3236;51.022;6.818;2024-01-15T12:58:24;8.27;;;2.40;;
6406;SDS011;3236;51.022;6.818;2024-01-15T13:00:56;6.13;;;2.83;;
6406;SDS011;3236;51.022;6.818;2024-01-15T13:03:24;7.38;;;2.97;;
6406;SDS011;3236;51.022;6.818;2024-01-15T13:05:51;7.57;;;4.00;;
6406;SDS011;3236;51.022;6.818;2024-01-15T13:08:21;4.68;;;2.80;;
6406;SDS011;3236;51.022;6.818;2024-01-15T13:10:56;10.75;;;3.42;;
6406;SDS011;3236;51.022;6.818;2024-01-15T13:13:25;2.05;;;1.90;;
6406;SDS011;3236;51.022;6.818;2024-01-15T13:15:59;9.60;;;2.63;;
6406;SDS011;3236;51.022;6.818;2024-01-15T13:18:31;5.25;;;2.40;;
6406;SDS011;3236;51.022;6.818;2024-01-15T13:20:59;6.28;;;3.05;;
6406;SDS011;3236;51.022;6.818;2024-01-15T13:23:27;2.97;;;1.40;;
6406;SDS011;3236;51.022;6.818;2024-01-15T13:26:03;4.85;;;3.03;;
6406;SDS011;3236;51.022;6.818;2024-01-15T13:28:30;1.85;;;1.60;;
6406;SDS011;3236;51.022;6.818;2024-01-15T13:30:57;7.97;;;3.20;;
6406;SDS011;3236;51.022;6.818;2024-01-15T13:33:25;7.22;;;2.95;;
6406;SDS011;3236;51.022;6.818;2024-01-15T13:35:58;8.52;;;3.42;;
6406;SDS011;3236;51.022;6.818;2024-01-15T13:38:26;6.57;;;2.58;;
6406;SDS011;3236;51.022;6.818;2024-01-15T13:40:59;5.07;;;3.33;;
6406;SDS011;3236;51.022;6.818;2024-01-15T13:43:37;2.58;;;2.28;;
6406;SDS011;3236;51.022;6.818;2024-01-15T13:46:05;3.22;;;2.47;;
6406;SDS011;3236;51.022;6.818;2024-01-15T13:48:35;4.32;;;3.30;;
6406;SDS011;3236;51.022;6.818;2024-01-15T13:51:02;2.22;;;2.00;;
6406;SDS011;3236;51.022;6.818;2024-01-15T13:53:32;7.57;;;3.63;;
6406;SDS011;3236;51.022;6.818;2024-01-15T13:56:00;5.60;;;3.28;;
6406;SDS011;3236;51.022;6.818;2024-01-15T13:58:32;7.22;;;2.38;;
6406;SDS011;3236;51.022;6.818;2024-01-15T14:00:59;3.80;;;2.35;;
6406;SDS011;3236;51.022;6.818;2024-01-15T14:03:34;3.60;;;2.78;;
6406;SDS011;3236;51.022;6.818;2024-01-15T14:06:04;4.07;;;2.80;;
6406;SDS011;3236;51.022;6.818;2024-01-15T14:08:43;3.88;;;2.35;;
6406;SDS011;3236;51.022;6.818;2024-01-15T14:11:16;2.97;;;2.05;;
6406;SDS011;3236;51.022;6.818;2024-01-15T14:13:45;3.65;;;1.83;;
6406;SDS011;3236;51.022;6.818;2024-01-15T14:16:16;4.47;;;1.48;;
6406;SDS011;3236;51.022;6.818;2024-01-15T14:18:46;4.15;;;2.25;;
6406;SDS011;3236;51.022;6.818;2024-01-15T14:21:14;1.58;;;1.48;;
6406;SDS011;3236;51.022;6.818;2024-01-15T14:23:41;5.05;;;3.03;;
6406;SDS011;3236;51.022;6.818;2024-01-15T14:26:08;4.93;;;2.15;;
6406;SDS011;3236;51.022;6.818;2024-01-15T14:28:36;2.70;;;1.88;;
6406;SDS011;3236;51.022;6.818;2024-01-15T14:31:09;2.20;;;1.90;;
6406;SDS011;3236;51.022;6.818;2024-01-15T14:33:42;3.28;;;2.22;;
6406;SDS011;3236;51.022;6.818;2024-01-15T14:36:09;3.17;;;1.77;;
6406;SDS011;3236;51.022;6.818;2024-01-15T14:38:39;1.52;;;1.42;;
6406;SDS011;3236;51.022;6.818;2024-01-15T14:41:07;3.28;;;2.38;;
6406;SDS011;3236;51.022;6.818;2024-01-15T14:43:34;4.53;;;1.48;;
6406;SDS011;3236;51.022;6.818;2024-01-15T14:46:02;3.13;;;2.25;;
6406;SDS011;3236;51.022;6.818;2024-01-15T14:48:31;3.22;;;2.35;;
6406;SDS011;3236;51.022;6.818;2024-01-15T14:50:58;3.92;;;2.65;;
6406;SDS011;3236;51.022;6.818;2024-01-15T14:53:31;3.42;;;2.58;;
6406;SDS011;3236;51.022;6.818;2024-01-15T14:55:58;2.83;;;1.95;;
6406;SDS011;3236;51.022;6.818;2024-01-15T14:58:27;2.72;;;1.67;;
6406;SDS011;3236;51.022;6.818;2024-01-15T15:01:10;9.48;;;3.35;;
6406;SDS011;3236;51.022;6.818;2024-01-15T15:03:39;6.13;;;3.13;;
6406;SDS011;3236;51.022;6.818;2024-01-15T15:06:12;9.60;;;3.80;;
6406;SDS011;3236;51.022;6.818;2024-01-15T15:08:39;4.88;;;1.85;;
6406;SDS011;3236;51.022;6.818;2024-01-15T15:11:06;5.13;;;2.28;;
6406;SDS011;3236;51.022;6.818;2024-01-15T15:13:35;6.40;;;2.50;;
6406;SDS011;3236;51.022;6.818;2024-01-15T15:16:03;2.97;;;2.55;;